Ile Surprise, New Caledonia
Current Conditions -  °F | °C
As of 1:30 PM on Monday 24 Nov 2014 (Local Time) from NWWW Reporting Station
Clear Clear  
Wind Chill: 86°   Ceiling: Unl
Heat Index: 86°   Visibility: 6mi
Dew Point: 59°   Wind: 18mph
Humidity: 40%   Direction: 140°SE
Pressure: 29.91"   Gusts: 30mph
Location:  18.48°S, 163.08°E
Report Text: NWWW 240230Z AUTO 14016G26KT 9999 NSC 30/15 Q1013
Loading
Personal Weather Stations






























Interactive Weather Map New forecast layout! Learn more

10-Day Weather Forecast

Advertisements
Track Severe Weather on mobile